Time;durP1;ratioP1;P1;durP2;ratioP2;P2;SDS_P1;SDS_P2;PMS_P1;PMS_P2;Temp;Humidity;BMP_temperature;BMP_pressure;BME280_temperature;BME280_humidity;BME280_pressure;Samples;Min_cycle;Max_cycle;Signal;HPM_P1;HPM_P2
2023/04/09 00:01:34;;;;;;;8.20;7.30;;;;;;;9.75;59.13;101024.94;10440544;28;20128;-66
2023/04/09 00:06:36;;;;;;;8.73;7.10;;;;;;;9.71;59.44;101018.09;10437517;28;20673;-68
2023/04/09 00:11:37;;;;;;;8.52;7.28;;;;;;;9.69;59.64;101022.69;10437878;28;20127;-65
2023/04/09 00:16:39;;;;;;;10.73;8.45;;;;;;;9.67;59.62;101019.28;10435246;28;20048;-67
2023/04/09 00:21:40;;;;;;;9.13;7.63;;;;;;;9.63;59.63;101018.59;10441468;28;20049;-69
2023/04/09 00:26:42;;;;;;;9.73;7.88;;;;;;;9.69;59.58;101017.38;10445437;28;20064;-69
2023/04/09 00:31:43;;;;;;;9.82;8.48;;;;;;;9.64;59.83;101019.47;10434774;28;20055;-68
2023/04/09 00:36:45;;;;;;;8.68;7.78;;;;;;;9.64;59.53;101014.16;10435042;28;20107;-67
2023/04/09 00:41:46;;;;;;;10.07;7.60;;;;;;;9.65;59.76;101021.16;10435578;28;20754;-67
2023/04/09 00:46:47;;;;;;;10.23;8.52;;;;;;;9.61;60.24;101003.69;10429452;28;20064;-69
2023/04/09 00:51:49;;;;;;;10.00;7.40;;;;;;;9.57;59.46;100988.94;10429987;28;20056;-67
2023/04/09 00:56:51;;;;;;;8.88;7.97;;;;;;;9.61;59.60;100998.38;10432930;28;20333;-67
2023/04/09 01:01:52;;;;;;;9.40;8.30;;;;;;;9.60;60.23;101000.19;10440143;28;20072;-67
2023/04/09 01:07:02;;;;;;;8.52;7.57;;;;;;;9.50;59.40;100994.63;10429589;28;20063;-70
2023/04/09 01:12:32;;;;;;;8.68;7.55;;;;;;;9.48;59.82;100999.19;10441523;28;20147;-68
2023/04/09 01:17:42;;;;;;;8.90;8.00;;;;;;;9.41;59.93;101000.53;10428963;28;20053;-67
2023/04/09 01:23:18;;;;;;;8.70;7.75;;;;;;;9.34;60.06;100996.56;10432107;28;20072;-69
2023/04/09 01:28:20;;;;;;;9.85;8.27;;;;;;;9.25;60.23;100997.13;10433151;28;20056;-66
2023/04/09 01:33:24;;;;;;;10.27;8.45;;;;;;;9.11;60.91;101006.84;10431930;28;20072;-69
2023/04/09 01:38:27;;;;;;;9.23;8.20;;;;;;;9.08;61.25;101006.16;10432353;28;20119;-69
2023/04/09 01:43:30;;;;;;;9.63;8.73;;;;;;;8.97;61.53;101005.03;10431036;28;20439;-67
2023/04/09 01:48:33;;;;;;;11.80;8.90;;;;;;;8.79;61.61;100979.63;10429416;28;20052;-66
2023/04/09 01:53:35;;;;;;;9.98;8.90;;;;;;;8.86;61.70;101007.50;10435782;28;20053;-69
2023/04/09 01:58:36;;;;;;;10.57;9.15;;;;;;;8.82;62.30;101001.50;10441075;28;20040;-69
2023/04/09 02:04:01;;;;;;;10.32;9.05;;;;;;;8.80;62.38;101003.41;10432953;28;20124;-66
2023/04/09 02:09:06;;;;;;;10.57;9.48;;;;;;;8.72;62.50;101004.81;10433471;28;20053;-65
2023/04/09 02:14:10;;;;;;;10.30;9.20;;;;;;;8.71;62.79;101003.97;10433775;28;20145;-68
2023/04/09 02:19:12;;;;;;;11.52;9.75;;;;;;;8.64;62.59;100992.03;10434158;28;20142;-69
2023/04/09 02:24:13;;;;;;;11.35;9.25;;;;;;;8.66;62.75;101008.69;10432904;28;20241;-66
2023/04/09 02:29:14;;;;;;;11.80;9.68;;;;;;;8.62;62.83;100997.41;10438678;28;20139;-68
2023/04/09 02:34:16;;;;;;;10.75;9.43;;;;;;;8.54;63.64;101001.47;10431274;28;20053;-67
2023/04/09 02:39:17;;;;;;;11.32;10.02;;;;;;;8.54;63.36;100997.03;10439822;28;20048;-68
2023/04/09 02:44:19;;;;;;;11.95;10.40;;;;;;;8.53;63.21;100995.31;10437635;28;20454;-65
2023/04/09 02:49:20;;;;;;;12.82;10.57;;;;;;;8.48;63.53;101000.91;10442050;28;20158;-67
2023/04/09 02:54:22;;;;;;;11.45;9.00;;;;;;;8.47;63.63;101001.00;10437096;28;20056;-69
2023/04/09 02:59:23;;;;;;;11.43;9.57;;;;;;;8.44;63.85;100999.38;10444135;28;20547;-69
2023/04/09 03:04:25;;;;;;;12.90;10.25;;;;;;;8.40;63.80;100992.50;10438847;28;20140;-69
2023/04/09 03:09:26;;;;;;;12.43;10.07;;;;;;;8.35;63.92;100986.63;10443489;28;20614;-68
2023/04/09 03:14:28;;;;;;;10.77;9.45;;;;;;;8.36;64.15;100982.16;10468498;28;20059;-73
2023/04/09 03:19:29;;;;;;;12.30;10.20;;;;;;;8.31;64.63;100985.09;10482907;28;20060;-66
2023/04/09 03:24:32;;;;;;;12.10;10.18;;;;;;;8.31;64.84;100979.78;10441904;28;20428;-69
2023/04/09 03:29:33;;;;;;;11.55;10.02;;;;;;;8.29;64.70;100981.69;10439291;28;20057;-66
2023/04/09 03:34:35;;;;;;;12.38;10.18;;;;;;;8.29;64.86;100982.53;10436309;28;20173;-68
2023/04/09 03:39:36;;;;;;;12.88;10.20;;;;;;;8.26;64.90;100979.22;10431989;28;20048;-67
2023/04/09 03:44:38;;;;;;;13.95;11.63;;;;;;;8.23;65.00;100977.59;10434232;28;20167;-66
2023/04/09 03:49:40;;;;;;;11.57;9.82;;;;;;;8.20;65.25;100982.25;10442166;28;20045;-68
2023/04/09 03:54:42;;;;;;;12.38;10.07;;;;;;;8.19;65.27;100977.88;10438344;28;20052;-68
2023/04/09 03:59:44;;;;;;;13.48;11.43;;;;;;;8.14;65.62;100979.00;10440774;28;20147;-67
2023/04/09 04:04:45;;;;;;;13.52;11.55;;;;;;;8.13;65.83;100985.22;10435673;28;20508;-64
2023/04/09 04:09:47;;;;;;;13.27;10.75;;;;;;;8.10;65.90;100980.09;10434400;28;20052;-69
2023/04/09 04:14:48;;;;;;;12.65;11.20;;;;;;;8.01;66.44;100967.41;10433291;28;20122;-67
2023/04/09 04:19:49;;;;;;;13.15;10.27;;;;;;;8.06;66.48;100980.38;10431903;28;20455;-69
2023/04/09 04:24:51;;;;;;;11.85;10.52;;;;;;;8.05;66.51;100979.53;10434728;28;20114;-66
2023/04/09 04:29:52;;;;;;;13.38;10.80;;;;;;;8.04;66.58;100982.28;10437686;28;20345;-68
2023/04/09 04:34:54;;;;;;;13.90;11.32;;;;;;;8.01;67.25;100982.47;10435996;28;20072;-66
2023/04/09 04:39:55;;;;;;;13.38;10.85;;;;;;;8.02;67.54;100986.81;10436942;28;20213;-66
2023/04/09 04:44:57;;;;;;;13.88;11.77;;;;;;;7.99;67.55;100984.31;10433878;28;20139;-68
2023/04/09 04:49:58;;;;;;;13.13;10.57;;;;;;;7.96;67.52;100985.38;10438038;28;20184;-70
2023/04/09 04:55:00;;;;;;;14.70;11.90;;;;;;;8.03;67.83;101004.44;10433704;28;20459;-67
2023/04/09 05:00:01;;;;;;;13.07;10.75;;;;;;;7.97;68.18;100995.03;10434191;28;20128;-66
2023/04/09 05:05:03;;;;;;;14.35;11.20;;;;;;;7.94;68.15;100984.59;10432206;28;20053;-69
2023/04/09 05:10:05;;;;;;;15.48;12.02;;;;;;;8.01;68.18;101003.66;10436073;28;20048;-69
2023/04/09 05:15:07;;;;;;;14.82;11.55;;;;;;;8.01;68.24;100999.22;10438172;28;20076;-67
2023/04/09 05:20:09;;;;;;;13.25;11.02;;;;;;;8.04;68.39;101003.50;10437069;28;20044;-68
2023/04/09 05:25:14;;;;;;;13.02;11.20;;;;;;;8.06;68.30;100999.81;10436032;28;20563;-67
2023/04/09 05:30:16;;;;;;;;;;;;;;;8.19;68.33;101005.25;10430921;28;20049;-67
2023/04/09 05:35:18;;;;;;;12.82;10.55;;;;;;;8.29;67.94;101005.56;10432886;28;20000;-67
2023/04/09 05:40:19;;;;;;;15.82;11.98;;;;;;;8.38;67.99;101007.69;10435132;28;20408;-69
2023/04/09 05:45:21;;;;;;;15.63;11.88;;;;;;;8.46;67.97;101010.75;10440835;28;20143;-67
2023/04/09 05:50:22;;;;;;;13.38;11.35;;;;;;;8.54;67.65;101014.75;10434969;28;20443;-67
2023/04/09 05:55:23;;;;;;;14.02;12.52;;;;;;;8.59;67.46;101015.34;10431963;28;20048;-70
2023/04/09 06:00:25;;;;;;;13.07;10.82;;;;;;;8.61;67.49;101014.28;10436769;28;20527;-67
2023/04/09 06:05:27;;;;;;;15.45;12.38;;;;;;;8.66;67.72;101012.22;10440896;28;20057;-70
2023/04/09 06:10:31;;;;;;;16.65;12.07;;;;;;;8.77;67.48;101019.53;10438737;28;20148;-69
2023/04/09 06:15:32;;;;;;;16.27;12.38;;;;;;;8.86;66.95;101018.13;10440253;28;20044;-67
2023/04/09 06:20:34;;;;;;;13.45;11.73;;;;;;;8.92;66.70;101017.75;10441027;28;20428;-69
2023/04/09 06:25:35;;;;;;;14.32;11.98;;;;;;;9.01;66.76;101016.31;10438962;28;20349;-65
2023/04/09 06:30:37;;;;;;;12.73;10.75;;;;;;;9.10;66.56;101025.53;10439397;28;20061;-67
2023/04/09 06:35:38;;;;;;;13.70;11.30;;;;;;;9.19;66.34;101022.28;10433144;28;20059;-66
2023/04/09 06:40:40;;;;;;;12.82;11.43;;;;;;;9.33;66.19;101022.25;10449311;28;20045;-68
2023/04/09 06:45:41;;;;;;;14.80;12.35;;;;;;;9.45;65.86;101031.28;10444717;28;20142;-69
2023/04/09 06:50:44;;;;;;;16.67;13.60;;;;;;;9.54;65.72;101030.69;10451458;28;20177;-72
2023/04/09 06:55:45;;;;;;;15.23;12.07;;;;;;;9.67;65.33;101035.22;10489255;28;20057;-70
2023/04/09 07:00:46;;;;;;;13.20;11.48;;;;;;;9.76;64.75;101026.66;10486819;28;20120;-72
2023/04/09 07:05:48;;;;;;;14.75;11.80;;;;;;;9.90;64.44;101034.56;10484597;28;20040;-71
2023/04/09 07:10:50;;;;;;;13.75;11.65;;;;;;;9.94;64.03;101021.06;10476441;28;20075;-64
2023/04/09 07:15:51;;;;;;;15.82;14.13;;;;;;;10.09;63.77;101025.41;10435227;28;20114;-68
2023/04/09 07:20:54;;;;;;;14.73;12.73;;;;;;;10.16;63.21;101021.34;10437915;28;20110;-67
2023/04/09 07:25:55;;;;;;;14.18;12.00;;;;;;;10.40;62.77;101034.00;10438228;28;20064;-66
2023/04/09 07:30:57;;;;;;;14.35;12.20;;;;;;;10.55;62.49;101030.34;10448121;28;20059;-67
2023/04/09 07:35:58;;;;;;;13.52;12.05;;;;;;;10.71;61.89;101034.59;10446866;28;20044;-66
2023/04/09 07:41:00;;;;;;;15.05;12.70;;;;;;;10.85;61.49;101034.50;10444077;28;20076;-67
2023/04/09 07:46:01;;;;;;;14.50;12.90;;;;;;;11.00;60.91;101034.41;10438181;28;20108;-65
2023/04/09 07:51:04;;;;;;;15.80;13.55;;;;;;;11.12;60.30;101037.06;10437246;28;20070;-66
2023/04/09 07:56:06;;;;;;;14.18;12.63;;;;;;;11.09;60.07;101052.41;10433791;28;20072;-67
2023/04/09 08:01:08;;;;;;;13.52;12.13;;;;;;;11.21;60.35;101046.19;10433327;28;20045;-67
2023/04/09 08:06:09;;;;;;;14.52;13.07;;;;;;;11.41;59.54;101063.47;10430599;28;20571;-68
2023/04/09 08:11:10;;;;;;;12.80;11.45;;;;;;;11.61;58.84;101040.69;10437918;28;20048;-69
2023/04/09 08:16:12;;;;;;;15.40;13.05;;;;;;;11.87;58.11;101051.28;10434124;28;20067;-68
2023/04/09 08:21:14;;;;;;;14.00;12.32;;;;;;;12.08;57.90;101053.38;10440810;28;20094;-66
2023/04/09 08:26:15;;;;;;;14.55;13.05;;;;;;;12.29;57.15;101058.91;10431303;28;20048;-66
2023/04/09 08:31:17;;;;;;;14.60;12.27;;;;;;;12.41;55.73;101054.47;10434547;28;20245;-66
2023/04/09 08:36:19;;;;;;;16.42;12.05;;;;;;;12.48;55.37;101058.38;10431827;28;20158;-68
2023/04/09 08:41:23;;;;;;;13.63;12.30;;;;;;;12.65;54.25;101065.94;10433021;28;20367;-71
2023/04/09 08:46:26;;;;;;;13.13;11.82;;;;;;;12.64;53.39;101055.38;10436271;28;20056;-69
2023/04/09 08:51:27;;;;;;;13.65;12.23;;;;;;;12.86;53.23;101058.09;10437203;28;20199;-69
2023/04/09 08:56:29;;;;;;;12.98;11.63;;;;;;;12.94;52.76;101070.91;10431962;28;20056;-68
2023/04/09 09:01:32;;;;;;;13.25;11.90;;;;;;;13.25;52.33;101071.16;10432112;28;20280;-68
2023/04/09 09:06:35;;;;;;;13.00;11.70;;;;;;;13.46;51.14;101067.78;10434674;28;20321;-66
2023/04/09 09:11:39;;;;;;;12.02;10.82;;;;;;;13.76;51.22;101062.63;10432919;28;20403;-67
2023/04/09 09:16:42;;;;;;;;;;;;;;;14.09;50.02;101063.53;10437296;28;20048;-68
2023/04/09 09:22:03;;;;;;;13.57;12.18;;;;;;;14.49;48.78;101057.53;10434371;28;19933;-68
2023/04/09 09:27:04;;;;;;;12.88;11.57;;;;;;;14.74;47.41;101058.16;10441549;28;20464;-65
2023/04/09 09:32:12;;;;;;;12.43;11.13;;;;;;;14.90;47.12;101071.09;10440904;28;20052;-67
2023/04/09 09:37:27;;;;;;;12.70;11.45;;;;;;;15.19;45.89;101062.34;10435513;28;20045;-68
2023/04/09 09:42:28;;;;;;;27.75;25.25;;;;;;;15.42;46.02;101056.78;10441353;28;20921;-68
2023/04/09 09:47:30;;;;;;;12.23;11.02;;;;;;;15.83;45.29;101055.81;10431931;28;20302;-68
2023/04/09 09:52:32;;;;;;;10.57;9.57;;;;;;;16.00;43.99;101057.00;10432748;28;20674;-70
2023/04/09 09:57:38;;;;;;;12.23;11.18;;;;;;;16.51;43.64;101046.94;10436567;28;20051;-66
2023/04/09 10:02:46;;;;;;;11.27;10.27;;;;;;;17.03;41.09;101048.44;10442798;28;20049;-69
2023/04/09 10:07:48;;;;;;;11.27;10.30;;;;;;;16.83;41.27;101048.47;10434924;28;20053;-71
2023/04/09 10:12:51;;;;;;;11.52;10.43;;;;;;;16.58;41.40;101033.78;10438016;28;20530;-69
2023/04/09 10:17:53;;;;;;;10.82;9.82;;;;;;;16.40;42.02;101020.25;10447862;28;20095;-69
2023/04/09 10:22:56;;;;;;;10.88;9.90;;;;;;;16.46;40.98;101025.03;10444165;28;20122;-69
2023/04/09 10:28:01;;;;;;;11.55;10.45;;;;;;;16.23;43.10;101019.97;10441524;28;20082;-69
2023/04/09 10:33:20;;;;;;;10.32;9.32;;;;;;;16.23;42.87;101013.75;10441662;28;20539;-69
2023/04/09 10:38:39;;;;;;;8.55;7.75;;;;;;;16.19;42.80;101023.91;10478115;28;20057;-71
2023/04/09 10:43:41;;;;;;;9.68;8.77;;;;;;;15.86;43.06;101020.66;10448840;28;20044;-67
2023/04/09 10:48:44;;;;;;;9.50;8.60;;;;;;;15.26;44.15;101009.88;10438984;28;20086;-70
2023/04/09 10:53:46;;;;;;;9.15;8.20;;;;;;;14.89;44.56;101013.09;10444539;28;20910;-69
2023/04/09 10:58:47;;;;;;;8.90;8.00;;;;;;;14.77;44.60;101008.78;10447948;28;20555;-68
2023/04/09 11:04:07;;;;;;;9.43;8.43;;;;;;;14.64;44.45;101014.38;10440312;28;20051;-66
2023/04/09 11:09:11;;;;;;;9.65;8.65;;;;;;;14.63;44.32;101005.47;10437906;28;20516;-68
2023/04/09 11:14:19;;;;;;;10.18;9.23;;;;;;;15.00;43.36;100999.63;10441557;28;20072;-69
2023/04/09 11:19:22;;;;;;;7.65;7.03;;;;;;;15.94;40.16;101003.00;10438849;28;20055;-67
2023/04/09 11:24:23;;;;;;;7.45;6.85;;;;;;;15.87;38.21;101002.72;10437368;28;20045;-67
2023/04/09 11:29:24;;;;;;;7.72;7.03;;;;;;;15.40;40.25;100984.50;10435445;28;20044;-70
2023/04/09 11:34:27;;;;;;;7.78;7.07;;;;;;;15.31;41.48;100996.06;10436275;28;20136;-67
2023/04/09 11:39:29;;;;;;;8.57;7.78;;;;;;;15.53;41.81;100989.63;10431985;28;20049;-68
2023/04/09 11:44:31;;;;;;;9.18;8.38;;;;;;;16.21;40.70;100992.41;10431913;28;20052;-67
2023/04/09 11:49:33;;;;;;;7.72;7.03;;;;;;;17.71;38.92;100988.91;10435204;28;20118;-68
2023/04/09 11:54:34;;;;;;;8.48;7.78;;;;;;;17.39;37.63;100984.00;10438361;28;20051;-70
2023/04/09 11:59:37;;;;;;;7.15;6.55;;;;;;;16.33;37.68;100986.88;10438571;28;20044;-67
2023/04/09 12:04:48;;;;;;;7.18;6.47;;;;;;;15.90;38.97;100987.16;10438727;28;20060;-67
2023/04/09 12:09:49;;;;;;;7.60;6.90;;;;;;;15.71;37.68;100987.13;10435459;28;20423;-70
2023/04/09 12:14:52;;;;;;;7.28;6.57;;;;;;;16.55;37.37;100981.19;10435968;28;20075;-70
2023/04/09 12:19:54;;;;;;;6.70;6.03;;;;;;;17.94;35.74;100970.50;10437647;28;20081;-68
2023/04/09 12:24:55;;;;;;;7.72;7.03;;;;;;;16.49;35.67;100979.06;10436222;28;20044;-68
2023/04/09 12:29:57;;;;;;;7.07;6.38;;;;;;;15.70;38.35;100972.88;10433503;28;20510;-67
2023/04/09 12:34:58;;;;;;;6.93;6.32;;;;;;;15.54;37.44;100973.38;10433879;28;20504;-70
2023/04/09 12:39:59;;;;;;;6.18;5.53;;;;;;;15.52;37.64;100961.97;10435822;28;20439;-70
2023/04/09 12:45:01;;;;;;;6.53;5.95;;;;;;;15.70;37.76;100951.38;10437296;28;20576;-69
2023/04/09 12:50:03;;;;;;;6.38;5.82;;;;;;;17.26;35.69;100947.56;10438124;28;20102;-69
2023/04/09 12:55:05;;;;;;;5.38;4.97;;;;;;;18.40;34.05;100942.56;10445113;28;20053;-69
2023/04/09 13:00:07;;;;;;;5.73;5.10;;;;;;;19.06;31.33;100941.91;10428908;28;20508;-66
2023/04/09 13:05:09;;;;;;;4.75;4.35;;;;;;;19.67;29.60;100938.25;10435080;28;20124;-69
2023/04/09 13:10:11;;;;;;;4.45;4.15;;;;;;;19.38;30.51;100918.78;10438190;28;20157;-71
2023/04/09 13:15:12;;;;;;;4.55;4.15;;;;;;;18.87;31.19;100923.28;10435349;28;20576;-69
2023/04/09 13:20:14;;;;;;;5.22;4.72;;;;;;;18.55;30.93;100916.69;10438003;28;20081;-69
2023/04/09 13:25:15;;;;;;;5.28;4.78;;;;;;;18.29;32.82;100914.84;10434689;28;20292;-69
2023/04/09 13:30:17;;;;;;;4.88;4.38;;;;;;;18.04;31.88;100910.28;10432857;28;20068;-67
2023/04/09 13:35:19;;;;;;;4.63;4.22;;;;;;;18.19;33.12;100896.13;10434984;28;20063;-66
2023/04/09 13:40:20;;;;;;;4.20;3.83;;;;;;;18.45;32.36;100906.03;10432496;28;21883;-68
2023/04/09 13:45:22;;;;;;;5.20;4.75;;;;;;;18.69;31.05;100897.25;10434797;28;20537;-65
2023/04/09 13:50:24;;;;;;;4.55;4.15;;;;;;;18.53;30.79;100884.50;10435656;28;20041;-70
2023/04/09 13:55:25;;;;;;;4.85;4.45;;;;;;;18.06;31.02;100878.66;10436348;28;20069;-69
2023/04/09 14:00:27;;;;;;;4.60;4.20;;;;;;;17.77;31.82;100885.13;10431741;28;20497;-66
2023/04/09 14:05:29;;;;;;;4.22;3.83;;;;;;;17.42;31.68;100855.38;10443247;28;20126;-69
2023/04/09 14:10:30;;;;;;;4.82;4.43;;;;;;;17.14;31.74;100873.41;10475035;28;20282;-70
2023/04/09 14:15:33;;;;;;;3.97;3.67;;;;;;;17.05;31.95;100868.94;10485333;28;20053;-71
2023/04/09 14:20:35;;;;;;;3.90;3.50;;;;;;;17.10;32.22;100869.34;10464360;28;20064;-68
2023/04/09 14:25:37;;;;;;;5.00;4.60;;;;;;;17.16;32.14;100868.75;10445868;28;20048;-69
2023/04/09 14:30:38;;;;;;;4.78;4.38;;;;;;;17.13;32.79;100869.88;10441749;28;20068;-66
2023/04/09 14:35:40;;;;;;;4.65;4.28;;;;;;;16.96;32.70;100870.69;10440513;28;20454;-64
2023/04/09 14:40:41;;;;;;;5.05;4.55;;;;;;;16.80;32.97;100865.94;10441760;28;20604;-65
2023/04/09 14:45:43;;;;;;;4.00;3.63;;;;;;;16.81;33.40;100856.03;10441599;28;20044;-69
2023/04/09 14:50:44;;;;;;;3.72;3.42;;;;;;;16.76;33.19;100849.25;10436130;28;20049;-68
2023/04/09 14:55:45;;;;;;;4.30;3.88;;;;;;;16.73;33.37;100835.28;10441234;28;20294;-67
2023/04/09 15:00:47;;;;;;;3.08;2.83;;;;;;;16.83;33.32;100841.44;10436625;28;20138;-67
2023/04/09 15:05:49;;;;;;;3.33;3.03;;;;;;;16.90;33.07;100833.66;10436689;28;20575;-68
2023/04/09 15:10:50;;;;;;;3.10;2.80;;;;;;;16.94;33.25;100830.50;10436997;28;20052;-66
2023/04/09 15:15:51;;;;;;;3.20;2.95;;;;;;;16.77;31.69;100829.44;10434668;28;20343;-66
2023/04/09 15:20:53;;;;;;;3.58;3.28;;;;;;;16.66;32.23;100829.63;10440866;28;20102;-66
2023/04/09 15:25:55;;;;;;;5.10;3.30;;;;;;;16.59;32.99;100823.19;10436164;28;20053;-67
2023/04/09 15:30:56;;;;;;;3.33;2.78;;;;;;;16.44;33.22;100829.03;10435039;28;20056;-65
2023/04/09 15:35:58;;;;;;;4.43;4.03;;;;;;;16.31;33.56;100822.31;10434683;28;20449;-68
2023/04/09 15:40:59;;;;;;;3.28;2.95;;;;;;;16.13;33.84;100820.38;10435169;28;20188;-68
2023/04/09 15:46:08;;;;;;;3.17;2.88;;;;;;;15.98;34.13;100824.53;10436401;28;20702;-68
2023/04/09 15:51:10;;;;;;;3.53;3.22;;;;;;;15.82;34.55;100817.06;10436039;28;20037;-66
2023/04/09 15:56:14;;;;;;;3.92;3.53;;;;;;;15.64;34.30;100809.72;10435282;28;20048;-66
2023/04/09 16:01:16;;;;;;;3.00;2.80;;;;;;;15.60;34.43;100812.81;10429211;28;20146;-68
2023/04/09 16:06:17;;;;;;;4.97;3.25;;;;;;;15.56;34.98;100806.88;10441671;28;20491;-69
2023/04/09 16:11:19;;;;;;;3.30;3.00;;;;;;;15.50;34.28;100813.66;10440328;28;20511;-68
2023/04/09 16:16:20;;;;;;;4.38;3.35;;;;;;;15.40;34.53;100810.13;10434748;28;20132;-67
2023/04/09 16:21:22;;;;;;;3.53;3.22;;;;;;;15.41;34.48;100801.09;10438061;28;20175;-67
2023/04/09 16:26:23;;;;;;;4.03;3.30;;;;;;;15.44;34.24;100792.78;10438442;28;20045;-67
2023/04/09 16:31:25;;;;;;;3.40;3.10;;;;;;;15.60;34.42;100794.03;10434239;28;20058;-67
2023/04/09 16:36:26;;;;;;;3.30;3.00;;;;;;;15.64;34.22;100804.34;10436211;28;20049;-67
2023/04/09 16:41:28;;;;;;;3.63;3.30;;;;;;;15.50;34.21;100802.94;10431605;28;20158;-67
2023/04/09 16:46:29;;;;;;;3.67;3.38;;;;;;;15.35;34.71;100801.69;10436189;28;20112;-68
2023/04/09 16:51:31;;;;;;;4.40;4.00;;;;;;;15.19;35.03;100800.41;10434434;28;20060;-68
2023/04/09 16:56:33;;;;;;;3.97;3.58;;;;;;;15.05;35.15;100798.13;10433672;28;20593;-66
2023/04/09 17:01:34;;;;;;;3.08;2.85;;;;;;;14.92;35.52;100802.91;10434782;28;20128;-70
2023/04/09 17:06:36;;;;;;;3.70;3.33;;;;;;;14.91;35.74;100799.38;10440382;28;20056;-69
2023/04/09 17:11:37;;;;;;;4.05;3.70;;;;;;;14.81;35.73;100788.63;10433524;28;20049;-68
2023/04/09 17:16:38;;;;;;;3.83;3.53;;;;;;;14.77;35.77;100792.59;10435998;28;20051;-69
2023/04/09 17:21:40;;;;;;;3.70;3.40;;;;;;;14.66;36.54;100792.69;10436152;28;20080;-69
2023/04/09 17:26:42;;;;;;;3.90;3.47;;;;;;;14.67;36.86;100799.75;10433858;28;20518;-65
2023/04/09 17:31:43;;;;;;;4.57;3.85;;;;;;;14.61;37.00;100798.47;10433964;28;20064;-67
2023/04/09 17:36:49;;;;;;;3.90;3.53;;;;;;;14.49;36.61;100803.03;10433611;28;20583;-67
2023/04/09 17:41:55;;;;;;;4.65;4.20;;;;;;;14.44;36.72;100805.28;10438564;28;20048;-66
2023/04/09 17:46:56;;;;;;;4.30;3.90;;;;;;;14.39;36.94;100812.03;10450924;28;20056;-69
2023/04/09 17:51:58;;;;;;;4.00;3.70;;;;;;;14.31;36.96;100810.88;10491802;28;20595;-72
2023/04/09 17:57:01;;;;;;;3.75;3.45;;;;;;;14.25;38.08;100805.22;10449316;28;20110;-66
2023/04/09 18:02:02;;;;;;;4.13;3.72;;;;;;;14.12;37.39;100800.91;10436888;28;20143;-66
2023/04/09 18:07:04;;;;;;;4.75;3.75;;;;;;;14.11;38.00;100820.66;10441687;28;20123;-67
2023/04/09 18:12:06;;;;;;;3.30;3.00;;;;;;;14.04;38.50;100830.19;10440519;28;20051;-66
2023/04/09 18:17:07;;;;;;;4.50;3.90;;;;;;;13.96;38.94;100827.31;10437601;28;20051;-67
2023/04/09 18:22:09;;;;;;;5.18;4.35;;;;;;;13.86;39.53;100831.78;10440349;28;20056;-66
2023/04/09 18:27:10;;;;;;;4.50;4.07;;;;;;;13.79;40.08;100836.78;10436918;28;20887;-69
2023/04/09 18:32:11;;;;;;;4.07;3.78;;;;;;;13.71;39.39;100845.47;10443241;28;20125;-68
2023/04/09 18:37:14;;;;;;;3.83;3.40;;;;;;;13.66;39.38;100836.97;10440883;28;20106;-67
2023/04/09 18:42:15;;;;;;;4.22;3.75;;;;;;;13.60;39.96;100845.50;10442450;28;20088;-66
2023/04/09 18:47:17;;;;;;;4.68;3.67;;;;;;;13.54;40.32;100854.03;10432264;28;20492;-68
2023/04/09 18:52:18;;;;;;;4.93;4.40;;;;;;;13.42;40.12;100848.75;10434876;28;20049;-67
2023/04/09 18:57:20;;;;;;;5.03;4.53;;;;;;;13.38;40.81;100858.00;10434518;28;20119;-67
2023/04/09 19:02:21;;;;;;;5.25;4.75;;;;;;;13.32;41.05;100861.16;10438314;28;20312;-68
2023/04/09 19:07:23;;;;;;;5.65;5.25;;;;;;;13.22;40.89;100849.50;10445527;28;20320;-65
2023/04/09 19:12:26;;;;;;;7.10;6.40;;;;;;;13.11;42.18;100852.22;10446545;28;20061;-67
2023/04/09 19:17:27;;;;;;;7.53;6.93;;;;;;;13.03;42.49;100855.50;10447912;28;20044;-67
2023/04/09 19:22:29;;;;;;;7.00;6.38;;;;;;;12.93;41.88;100868.78;10449247;28;20068;-67
2023/04/09 19:27:31;;;;;;;7.38;6.68;;;;;;;12.88;42.33;100866.47;10440525;28;20083;-68
2023/04/09 19:32:32;;;;;;;7.03;6.28;;;;;;;12.83;42.78;100855.28;10441670;28;20152;-69
2023/04/09 19:37:34;;;;;;;6.25;5.65;;;;;;;12.78;42.43;100854.00;10444555;28;20381;-68
2023/04/09 19:42:35;;;;;;;5.72;5.22;;;;;;;12.74;43.26;100877.41;10445485;28;20481;-68
2023/04/09 19:47:37;;;;;;;6.22;5.63;;;;;;;12.68;42.81;100861.88;10448578;28;20071;-68
2023/04/09 19:52:39;;;;;;;8.02;7.32;;;;;;;12.62;43.05;100862.38;10440597;28;20444;-67
2023/04/09 19:57:42;;;;;;;7.10;6.50;;;;;;;12.54;43.04;100858.47;10443048;28;20240;-66
2023/04/09 20:02:44;;;;;;;7.65;6.95;;;;;;;12.51;42.98;100855.22;10442141;28;20118;-67
2023/04/09 20:07:49;;;;;;;10.07;8.35;;;;;;;12.41;43.36;100859.56;10440787;28;20586;-66
2023/04/09 20:12:51;;;;;;;9.70;8.00;;;;;;;12.38;43.99;100861.53;10454394;28;20550;-71
2023/04/09 20:17:52;;;;;;;7.78;7.05;;;;;;;12.32;44.37;100861.97;10446305;28;20045;-67
2023/04/09 20:22:56;;;;;;;8.75;7.88;;;;;;;12.23;44.18;100852.03;10442694;28;20048;-67
2023/04/09 20:27:57;;;;;;;8.38;7.50;;;;;;;12.20;44.83;100857.59;10439955;28;20127;-70
2023/04/09 20:33:00;;;;;;;7.72;6.97;;;;;;;12.20;44.99;100852.25;10432996;28;20575;-69
2023/04/09 20:38:01;;;;;;;7.85;7.15;;;;;;;12.10;45.78;100867.28;10439963;28;20052;-67
2023/04/09 20:43:04;;;;;;;8.90;8.05;;;;;;;12.02;45.48;100859.88;10442286;28;20336;-67
2023/04/09 20:48:05;;;;;;;8.50;7.70;;;;;;;11.92;45.74;100859.72;10437373;28;20072;-69
2023/04/09 20:53:06;;;;;;;8.38;7.57;;;;;;;11.84;45.45;100851.44;10439104;28;20792;-67
2023/04/09 20:58:08;;;;;;;8.82;8.13;;;;;;;11.75;46.14;100852.97;10436212;28;20056;-69
2023/04/09 21:03:09;;;;;;;8.88;8.07;;;;;;;11.70;46.23;100860.50;10449094;28;20226;-66
2023/04/09 21:08:14;;;;;;;10.25;9.27;;;;;;;11.64;45.96;100860.97;10450655;28;20040;-66
2023/04/09 21:13:15;;;;;;;8.85;8.05;;;;;;;11.56;46.81;100863.34;10447523;28;20834;-67
2023/04/09 21:18:17;;;;;;;9.88;8.95;;;;;;;11.53;46.92;100861.78;10457622;28;20355;-67
2023/04/09 21:23:18;;;;;;;10.38;9.40;;;;;;;11.44;46.82;100849.09;10481692;28;20055;-71
2023/04/09 21:28:20;;;;;;;8.88;7.97;;;;;;;11.41;46.72;100846.66;10462651;28;20040;-67
2023/04/09 21:33:21;;;;;;;9.63;8.70;;;;;;;11.35;46.81;100847.13;10436660;28;20059;-64
2023/04/09 21:38:22;;;;;;;9.75;8.85;;;;;;;11.28;47.12;100844.91;10440857;28;20130;-68
2023/04/09 21:43:28;;;;;;;10.45;9.45;;;;;;;11.23;47.30;100844.44;10436989;28;20132;-67
2023/04/09 21:48:29;;;;;;;11.07;10.00;;;;;;;11.16;47.95;100845.84;10429796;28;20427;-68
2023/04/09 21:53:31;;;;;;;10.98;9.98;;;;;;;11.12;47.96;100842.56;10437692;28;20135;-66
2023/04/09 21:58:33;;;;;;;10.40;9.30;;;;;;;11.05;48.02;100843.09;10430691;28;20136;-68
2023/04/09 22:03:35;;;;;;;10.02;8.90;;;;;;;11.02;48.24;100848.66;10431102;28;20048;-69
2023/04/09 22:08:36;;;;;;;8.88;8.07;;;;;;;10.95;48.51;100849.09;10431550;28;20131;-68
2023/04/09 22:13:56;;;;;;;10.57;9.45;;;;;;;10.90;48.70;100851.25;10437394;28;20037;-67
2023/04/09 22:18:57;;;;;;;10.73;9.63;;;;;;;10.83;48.92;100844.66;10435335;28;20421;-67
2023/04/09 22:23:59;;;;;;;10.43;9.45;;;;;;;10.78;48.96;100842.34;10438318;28;20237;-65
2023/04/09 22:29:01;;;;;;;10.27;9.27;;;;;;;10.72;49.37;100856.09;10427483;28;20052;-67
2023/04/09 22:34:08;;;;;;;10.60;9.63;;;;;;;10.66;49.52;100867.19;10434323;28;20057;-65
2023/04/09 22:39:21;;;;;;;10.52;9.57;;;;;;;10.57;49.79;100849.22;10430415;28;20053;-65
2023/04/09 22:44:23;;;;;;;10.82;9.82;;;;;;;10.55;49.95;100851.09;10435544;28;20348;-63
2023/04/09 22:49:25;;;;;;;9.82;8.85;;;;;;;10.48;50.03;100849.84;10440704;28;20056;-65
2023/04/09 22:54:28;;;;;;;10.48;9.43;;;;;;;10.39;50.65;100835.38;10438686;28;20110;-69
2023/04/09 22:59:30;;;;;;;9.13;8.13;;;;;;;10.32;50.95;100844.72;10437805;28;20045;-67
2023/04/09 23:04:41;;;;;;;9.40;8.45;;;;;;;10.30;50.83;100847.50;10439869;28;20060;-63